sensor_id;sensor_type;location;lat;lon;timestamp;pressure;altitude;pressure_sealevel;temperature;humidity
53719;BME280;39616;48.872;9.390;2023-05-09T00:00:51;98617.75;;;13.06;100.00
53719;BME280;39616;48.872;9.390;2023-05-09T00:03:22;98616.34;;;13.09;100.00
53719;BME280;39616;48.872;9.390;2023-05-09T00:05:52;98618.44;;;13.12;100.00
53719;BME280;39616;48.872;9.390;2023-05-09T00:08:22;98619.75;;;13.15;100.00
53719;BME280;39616;48.872;9.390;2023-05-09T00:10:53;98613.19;;;13.16;100.00
53719;BME280;39616;48.872;9.390;2023-05-09T00:13:24;98611.41;;;13.11;100.00
53719;BME280;39616;48.872;9.390;2023-05-09T00:15:54;98608.16;;;13.09;100.00
53719;BME280;39616;48.872;9.390;2023-05-09T00:18:26;98613.94;;;13.08;100.00
53719;BME280;39616;48.872;9.390;2023-05-09T00:20:57;98607.50;;;13.03;100.00
53719;BME280;39616;48.872;9.390;2023-05-09T00:23:27;98610.00;;;13.00;100.00
53719;BME280;39616;48.872;9.390;2023-05-09T00:25:58;98595.19;;;12.92;100.00
53719;BME280;39616;48.872;9.390;2023-05-09T00:28:28;98592.91;;;12.86;100.00
53719;BME280;39616;48.872;9.390;2023-05-09T00:30:59;98600.06;;;12.81;100.00
53719;BME280;39616;48.872;9.390;2023-05-09T00:33:29;98598.22;;;12.77;100.00
53719;BME280;39616;48.872;9.390;2023-05-09T00:35:59;98589.66;;;12.70;100.00
53719;BME280;39616;48.872;9.390;2023-05-09T00:38:30;98592.19;;;12.66;100.00
53719;BME280;39616;48.872;9.390;2023-05-09T00:41:00;98586.06;;;12.61;100.00
53719;BME280;39616;48.872;9.390;2023-05-09T00:43:30;98580.41;;;12.57;100.00
53719;BME280;39616;48.872;9.390;2023-05-09T00:46:01;98580.53;;;12.52;100.00
53719;BME280;39616;48.872;9.390;2023-05-09T00:48:31;98580.63;;;12.47;100.00
53719;BME280;39616;48.872;9.390;2023-05-09T00:51:02;98574.50;;;12.41;100.00
53719;BME280;39616;48.872;9.390;2023-05-09T00:53:32;98572.84;;;12.40;100.00
53719;BME280;39616;48.872;9.390;2023-05-09T00:56:03;98575.69;;;12.35;100.00
53719;BME280;39616;48.872;9.390;2023-05-09T00:58:34;98569.53;;;12.29;100.00
53719;BME280;39616;48.872;9.390;2023-05-09T01:01:04;98566.81;;;12.29;100.00
53719;BME280;39616;48.872;9.390;2023-05-09T01:03:35;98565.50;;;12.27;100.00
53719;BME280;39616;48.872;9.390;2023-05-09T01:09:31;98558.75;;;12.24;100.00
53719;BME280;39616;48.872;9.390;2023-05-09T01:12:41;98564.19;;;12.24;100.00
53719;BME280;39616;48.872;9.390;2023-05-09T01:15:45;98557.94;;;12.24;100.00
53719;BME280;39616;48.872;9.390;2023-05-09T01:18:32;98560.97;;;12.22;100.00
53719;BME280;39616;48.872;9.390;2023-05-09T01:21:07;98549.59;;;12.20;100.00
53719;BME280;39616;48.872;9.390;2023-05-09T01:26:37;98551.91;;;12.13;100.00
53719;BME280;39616;48.872;9.390;2023-05-09T01:31:46;98551.97;;;11.94;100.00
53719;BME280;39616;48.872;9.390;2023-05-09T01:34:20;98555.97;;;11.83;100.00
53719;BME280;39616;48.872;9.390;2023-05-09T01:36:55;98569.72;;;11.73;100.00
53719;BME280;39616;48.872;9.390;2023-05-09T01:39:27;98563.44;;;11.58;100.00
53719;BME280;39616;48.872;9.390;2023-05-09T01:42:01;98562.50;;;11.49;100.00
53719;BME280;39616;48.872;9.390;2023-05-09T01:44:37;98566.19;;;11.40;100.00
53719;BME280;39616;48.872;9.390;2023-05-09T01:47:08;98565.25;;;11.30;100.00
53719;BME280;39616;48.872;9.390;2023-05-09T01:49:40;98552.31;;;11.22;100.00
53719;BME280;39616;48.872;9.390;2023-05-09T01:52:14;98553.00;;;11.14;100.00
53719;BME280;39616;48.872;9.390;2023-05-09T01:54:46;98551.75;;;11.06;100.00
53719;BME280;39616;48.872;9.390;2023-05-09T01:57:17;98545.09;;;10.99;100.00
53719;BME280;39616;48.872;9.390;2023-05-09T01:59:49;98545.66;;;10.96;100.00
53719;BME280;39616;48.872;9.390;2023-05-09T02:02:20;98553.53;;;10.97;100.00
53719;BME280;39616;48.872;9.390;2023-05-09T02:04:50;98554.91;;;10.95;100.00
53719;BME280;39616;48.872;9.390;2023-05-09T02:07:23;98544.94;;;10.90;100.00
53719;BME280;39616;48.872;9.390;2023-05-09T02:09:54;98541.41;;;10.89;100.00
53719;BME280;39616;48.872;9.390;2023-05-09T02:12:25;98543.66;;;10.82;100.00
53719;BME280;39616;48.872;9.390;2023-05-09T02:14:56;98544.84;;;10.76;100.00
53719;BME280;39616;48.872;9.390;2023-05-09T02:17:26;98543.16;;;10.80;100.00
53719;BME280;39616;48.872;9.390;2023-05-09T02:19:59;98543.84;;;10.91;100.00
53719;BME280;39616;48.872;9.390;2023-05-09T02:22:29;98543.16;;;10.80;100.00
53719;BME280;39616;48.872;9.390;2023-05-09T02:25:00;98539.94;;;10.78;100.00
53719;BME280;39616;48.872;9.390;2023-05-09T02:27:33;98536.19;;;10.74;100.00
53719;BME280;39616;48.872;9.390;2023-05-09T02:30:07;98542.81;;;10.68;100.00
53719;BME280;39616;48.872;9.390;2023-05-09T02:32:42;98535.16;;;10.70;100.00
53719;BME280;39616;48.872;9.390;2023-05-09T02:35:15;98539.72;;;10.75;100.00
53719;BME280;39616;48.872;9.390;2023-05-09T02:37:49;98540.75;;;10.79;100.00
53719;BME280;39616;48.872;9.390;2023-05-09T02:40:20;98540.69;;;10.84;100.00
53719;BME280;39616;48.872;9.390;2023-05-09T02:42:51;98540.31;;;10.91;100.00
53719;BME280;39616;48.872;9.390;2023-05-09T02:45:21;98540.16;;;11.01;100.00
53719;BME280;39616;48.872;9.390;2023-05-09T02:47:52;98542.00;;;11.05;100.00
53719;BME280;39616;48.872;9.390;2023-05-09T02:50:22;98539.22;;;11.10;100.00
53719;BME280;39616;48.872;9.390;2023-05-09T02:52:52;98539.94;;;11.16;100.00
53719;BME280;39616;48.872;9.390;2023-05-09T02:55:23;98527.41;;;11.20;100.00
53719;BME280;39616;48.872;9.390;2023-05-09T02:57:53;98526.50;;;11.25;100.00
53719;BME280;39616;48.872;9.390;2023-05-09T03:00:23;98514.25;;;11.27;100.00
53719;BME280;39616;48.872;9.390;2023-05-09T03:02:55;98513.94;;;11.29;100.00
53719;BME280;39616;48.872;9.390;2023-05-09T03:05:25;98518.06;;;11.26;100.00
53719;BME280;39616;48.872;9.390;2023-05-09T03:07:55;98507.28;;;11.21;100.00
53719;BME280;39616;48.872;9.390;2023-05-09T03:10:26;98506.47;;;11.21;100.00
53719;BME280;39616;48.872;9.390;2023-05-09T03:12:56;98500.84;;;11.17;100.00
53719;BME280;39616;48.872;9.390;2023-05-09T03:15:26;98506.28;;;11.17;100.00
53719;BME280;39616;48.872;9.390;2023-05-09T03:17:56;98507.38;;;11.16;100.00
53719;BME280;39616;48.872;9.390;2023-05-09T03:20:27;98503.56;;;11.17;100.00
53719;BME280;39616;48.872;9.390;2023-05-09T03:22:57;98507.59;;;11.20;100.00
53719;BME280;39616;48.872;9.390;2023-05-09T03:25:27;98498.34;;;11.21;100.00
53719;BME280;39616;48.872;9.390;2023-05-09T03:27:58;98502.97;;;11.20;100.00
53719;BME280;39616;48.872;9.390;2023-05-09T03:30:29;98502.38;;;11.23;100.00
53719;BME280;39616;48.872;9.390;2023-05-09T03:32:59;98504.78;;;11.25;100.00
53719;BME280;39616;48.872;9.390;2023-05-09T03:35:29;98497.97;;;11.27;100.00
53719;BME280;39616;48.872;9.390;2023-05-09T03:38:00;98487.00;;;11.32;100.00
53719;BME280;39616;48.872;9.390;2023-05-09T03:40:30;98490.47;;;11.38;100.00
53719;BME280;39616;48.872;9.390;2023-05-09T03:43:00;98480.63;;;11.42;100.00
53719;BME280;39616;48.872;9.390;2023-05-09T03:45:30;98483.53;;;11.46;100.00
53719;BME280;39616;48.872;9.390;2023-05-09T03:48:01;98478.31;;;11.49;100.00
53719;BME280;39616;48.872;9.390;2023-05-09T03:50:34;98471.47;;;11.52;100.00
53719;BME280;39616;48.872;9.390;2023-05-09T03:53:05;98475.72;;;11.58;100.00
53719;BME280;39616;48.872;9.390;2023-05-09T03:55:35;98477.91;;;11.56;100.00
53719;BME280;39616;48.872;9.390;2023-05-09T03:58:05;98481.94;;;11.58;100.00
53719;BME280;39616;48.872;9.390;2023-05-09T04:00:36;98468.09;;;11.60;100.00
53719;BME280;39616;48.872;9.390;2023-05-09T04:03:06;98477.53;;;11.63;100.00
53719;BME280;39616;48.872;9.390;2023-05-09T04:05:37;98479.38;;;11.67;100.00
53719;BME280;39616;48.872;9.390;2023-05-09T04:08:07;98476.53;;;11.72;100.00
53719;BME280;39616;48.872;9.390;2023-05-09T04:10:38;98481.00;;;11.82;100.00
53719;BME280;39616;48.872;9.390;2023-05-09T04:13:08;98486.63;;;11.85;100.00
53719;BME280;39616;48.872;9.390;2023-05-09T04:15:38;98483.63;;;11.87;100.00
53719;BME280;39616;48.872;9.390;2023-05-09T04:18:08;98484.03;;;11.94;100.00
53719;BME280;39616;48.872;9.390;2023-05-09T04:20:39;98487.47;;;12.00;100.00
53719;BME280;39616;48.872;9.390;2023-05-09T04:23:09;98480.03;;;12.05;100.00
53719;BME280;39616;48.872;9.390;2023-05-09T04:25:39;98482.44;;;12.07;100.00
53719;BME280;39616;48.872;9.390;2023-05-09T04:28:10;98483.44;;;12.11;100.00
53719;BME280;39616;48.872;9.390;2023-05-09T04:30:40;98479.03;;;12.15;100.00
53719;BME280;39616;48.872;9.390;2023-05-09T04:33:10;98486.75;;;12.22;100.00
53719;BME280;39616;48.872;9.390;2023-05-09T04:35:41;98488.59;;;12.26;100.00
53719;BME280;39616;48.872;9.390;2023-05-09T04:38:11;98498.22;;;12.32;100.00
53719;BME280;39616;48.872;9.390;2023-05-09T04:40:41;98493.50;;;12.38;100.00
53719;BME280;39616;48.872;9.390;2023-05-09T04:43:11;98494.19;;;12.44;100.00
53719;BME280;39616;48.872;9.390;2023-05-09T04:45:43;98504.66;;;12.50;100.00
53719;BME280;39616;48.872;9.390;2023-05-09T04:48:14;98495.09;;;12.53;100.00
53719;BME280;39616;48.872;9.390;2023-05-09T04:50:44;98499.94;;;12.56;100.00
53719;BME280;39616;48.872;9.390;2023-05-09T04:53:17;98500.94;;;12.60;100.00
53719;BME280;39616;48.872;9.390;2023-05-09T04:55:47;98498.69;;;12.62;100.00
53719;BME280;39616;48.872;9.390;2023-05-09T04:58:18;98496.97;;;12.66;100.00
53719;BME280;39616;48.872;9.390;2023-05-09T05:00:48;98498.16;;;12.74;100.00
53719;BME280;39616;48.872;9.390;2023-05-09T05:03:19;98500.97;;;12.82;100.00
53719;BME280;39616;48.872;9.390;2023-05-09T05:05:49;98500.44;;;12.94;100.00
53719;BME280;39616;48.872;9.390;2023-05-09T05:08:19;98499.88;;;13.06;100.00
53719;BME280;39616;48.872;9.390;2023-05-09T05:10:50;98505.09;;;13.16;100.00
53719;BME280;39616;48.872;9.390;2023-05-09T05:13:20;98502.78;;;13.23;100.00
53719;BME280;39616;48.872;9.390;2023-05-09T05:15:50;98499.13;;;13.28;100.00
53719;BME280;39616;48.872;9.390;2023-05-09T05:18:21;98499.44;;;13.26;100.00
53719;BME280;39616;48.872;9.390;2023-05-09T05:20:51;98499.13;;;13.28;100.00
53719;BME280;39616;48.872;9.390;2023-05-09T05:23:21;98494.66;;;13.32;100.00
53719;BME280;39616;48.872;9.390;2023-05-09T05:25:52;98490.16;;;13.27;100.00
53719;BME280;39616;48.872;9.390;2023-05-09T05:28:22;98487.00;;;13.34;100.00
53719;BME280;39616;48.872;9.390;2023-05-09T05:30:52;98485.44;;;13.42;100.00
53719;BME280;39616;48.872;9.390;2023-05-09T05:33:23;98488.63;;;13.44;100.00
53719;BME280;39616;48.872;9.390;2023-05-09T05:35:53;98483.19;;;13.44;100.00
53719;BME280;39616;48.872;9.390;2023-05-09T05:38:23;98475.28;;;13.56;100.00
53719;BME280;39616;48.872;9.390;2023-05-09T05:40:54;98480.31;;;13.71;100.00
53719;BME280;39616;48.872;9.390;2023-05-09T05:43:24;98474.59;;;13.82;100.00
53719;BME280;39616;48.872;9.390;2023-05-09T05:45:55;98471.25;;;13.85;100.00
53719;BME280;39616;48.872;9.390;2023-05-09T05:48:25;98471.09;;;13.90;100.00
53719;BME280;39616;48.872;9.390;2023-05-09T05:50:55;98474.53;;;14.04;100.00
53719;BME280;39616;48.872;9.390;2023-05-09T05:53:26;98471.19;;;14.16;100.00
53719;BME280;39616;48.872;9.390;2023-05-09T05:55:56;98464.03;;;14.29;100.00
53719;BME280;39616;48.872;9.390;2023-05-09T05:58:26;98457.47;;;14.47;100.00
53719;BME280;39616;48.872;9.390;2023-05-09T06:00:57;98455.22;;;14.40;99.45
53719;BME280;39616;48.872;9.390;2023-05-09T06:03:27;98451.09;;;14.52;97.21
53719;BME280;39616;48.872;9.390;2023-05-09T06:05:58;98446.13;;;14.62;96.08
53719;BME280;39616;48.872;9.390;2023-05-09T06:08:28;98443.91;;;14.73;94.66
53719;BME280;39616;48.872;9.390;2023-05-09T06:10:59;98444.22;;;14.80;93.99
53719;BME280;39616;48.872;9.390;2023-05-09T06:13:30;98443.88;;;14.99;93.44
53719;BME280;39616;48.872;9.390;2023-05-09T06:16:00;98439.22;;;15.00;92.68
53719;BME280;39616;48.872;9.390;2023-05-09T06:18:33;98437.63;;;14.98;91.76
53719;BME280;39616;48.872;9.390;2023-05-09T06:21:05;98434.53;;;15.09;90.28
53719;BME280;39616;48.872;9.390;2023-05-09T06:23:35;98432.00;;;15.04;90.61
53719;BME280;39616;48.872;9.390;2023-05-09T06:26:06;98435.81;;;15.20;89.54
53719;BME280;39616;48.872;9.390;2023-05-09T06:28:36;98433.41;;;15.27;89.31
53719;BME280;39616;48.872;9.390;2023-05-09T06:31:06;98426.00;;;15.36;88.96
53719;BME280;39616;48.872;9.390;2023-05-09T06:33:37;98436.91;;;15.45;88.12
53719;BME280;39616;48.872;9.390;2023-05-09T06:36:07;98432.41;;;15.40;87.95
53719;BME280;39616;48.872;9.390;2023-05-09T06:38:37;98427.56;;;15.46;87.41
53719;BME280;39616;48.872;9.390;2023-05-09T06:41:08;98426.28;;;15.52;86.78
53719;BME280;39616;48.872;9.390;2023-05-09T06:43:38;98422.91;;;15.46;86.50
53719;BME280;39616;48.872;9.390;2023-05-09T06:46:08;98417.59;;;15.50;87.61
53719;BME280;39616;48.872;9.390;2023-05-09T06:48:39;98415.13;;;15.75;87.23
53719;BME280;39616;48.872;9.390;2023-05-09T06:51:09;98421.13;;;15.98;84.43
53719;BME280;39616;48.872;9.390;2023-05-09T06:53:40;98412.50;;;16.16;84.26
53719;BME280;39616;48.872;9.390;2023-05-09T06:56:11;98420.16;;;16.53;82.20
53719;BME280;39616;48.872;9.390;2023-05-09T06:58:41;98410.09;;;16.65;81.70
53719;BME280;39616;48.872;9.390;2023-05-09T07:01:11;98403.94;;;16.89;80.06
53719;BME280;39616;48.872;9.390;2023-05-09T07:03:42;98404.00;;;17.02;78.88
53719;BME280;39616;48.872;9.390;2023-05-09T07:06:12;98401.69;;;17.25;77.42
53719;BME280;39616;48.872;9.390;2023-05-09T07:08:43;98384.34;;;17.45;76.76
53719;BME280;39616;48.872;9.390;2023-05-09T07:11:13;98392.63;;;17.57;75.97
53719;BME280;39616;48.872;9.390;2023-05-09T07:13:43;98396.50;;;17.56;75.49
53719;BME280;39616;48.872;9.390;2023-05-09T07:16:14;98388.25;;;17.44;76.03
53719;BME280;39616;48.872;9.390;2023-05-09T07:18:44;98390.13;;;17.77;75.89
53719;BME280;39616;48.872;9.390;2023-05-09T07:21:15;98394.00;;;18.00;74.12
53719;BME280;39616;48.872;9.390;2023-05-09T07:23:45;98388.63;;;18.04;72.42
53719;BME280;39616;48.872;9.390;2023-05-09T07:26:15;98388.97;;;18.15;72.19
53719;BME280;39616;48.872;9.390;2023-05-09T07:28:46;98389.47;;;17.80;72.52
53719;BME280;39616;48.872;9.390;2023-05-09T07:31:16;98389.66;;;17.75;71.68
53719;BME280;39616;48.872;9.390;2023-05-09T07:33:46;98388.03;;;17.74;72.40
53719;BME280;39616;48.872;9.390;2023-05-09T07:36:16;98381.19;;;17.68;72.10
53719;BME280;39616;48.872;9.390;2023-05-09T07:38:47;98368.28;;;17.68;72.61
53719;BME280;39616;48.872;9.390;2023-05-09T07:41:19;98355.72;;;18.04;72.66
53719;BME280;39616;48.872;9.390;2023-05-09T07:43:49;98353.91;;;18.61;70.17
53719;BME280;39616;48.872;9.390;2023-05-09T07:46:20;98346.53;;;19.21;67.29
53719;BME280;39616;48.872;9.390;2023-05-09T07:48:50;98347.25;;;19.97;64.52
53719;BME280;39616;48.872;9.390;2023-05-09T07:51:20;98341.56;;;20.41;64.05
53719;BME280;39616;48.872;9.390;2023-05-09T07:53:51;98343.06;;;20.38;61.44
53719;BME280;39616;48.872;9.390;2023-05-09T07:56:21;98337.16;;;20.20;63.13
53719;BME280;39616;48.872;9.390;2023-05-09T07:58:51;98341.88;;;19.85;62.85
53719;BME280;39616;48.872;9.390;2023-05-09T08:01:22;98340.53;;;19.47;63.53
53719;BME280;39616;48.872;9.390;2023-05-09T08:03:52;98339.78;;;19.18;64.85
53719;BME280;39616;48.872;9.390;2023-05-09T08:06:22;98331.09;;;19.16;63.61
53719;BME280;39616;48.872;9.390;2023-05-09T08:08:53;98316.28;;;19.37;63.31
53719;BME280;39616;48.872;9.390;2023-05-09T08:11:23;98318.44;;;19.59;61.78
53719;BME280;39616;48.872;9.390;2023-05-09T08:13:53;98306.31;;;20.11;60.74
53719;BME280;39616;48.872;9.390;2023-05-09T08:16:24;98305.06;;;20.63;60.15
53719;BME280;39616;48.872;9.390;2023-05-09T08:18:54;98298.88;;;20.89;58.05
53719;BME280;39616;48.872;9.390;2023-05-09T08:21:24;98302.50;;;20.74;59.41
53719;BME280;39616;48.872;9.390;2023-05-09T08:23:55;98299.69;;;20.70;59.91
53719;BME280;39616;48.872;9.390;2023-05-09T08:26:26;98295.06;;;20.55;59.08
53719;BME280;39616;48.872;9.390;2023-05-09T08:28:56;98288.19;;;20.10;59.62
53719;BME280;39616;48.872;9.390;2023-05-09T08:31:26;98291.94;;;20.02;59.97
53719;BME280;39616;48.872;9.390;2023-05-09T08:33:57;98287.91;;;19.80;60.11
53719;BME280;39616;48.872;9.390;2023-05-09T08:36:27;98286.66;;;20.13;59.48
53719;BME280;39616;48.872;9.390;2023-05-09T08:38:57;98281.72;;;20.57;57.73
53719;BME280;39616;48.872;9.390;2023-05-09T08:41:28;98277.38;;;20.98;57.26
53719;BME280;39616;48.872;9.390;2023-05-09T08:44:00;98265.66;;;21.05;56.18
53719;BME280;39616;48.872;9.390;2023-05-09T08:46:35;98263.47;;;21.14;55.26
53719;BME280;39616;48.872;9.390;2023-05-09T08:49:08;98265.56;;;21.21;55.29
53719;BME280;39616;48.872;9.390;2023-05-09T08:51:38;98251.28;;;21.38;55.06
53719;BME280;39616;48.872;9.390;2023-05-09T08:54:09;98247.28;;;21.59;54.62
53719;BME280;39616;48.872;9.390;2023-05-09T08:56:41;98246.72;;;21.50;53.95
53719;BME280;39616;48.872;9.390;2023-05-09T08:59:12;98246.09;;;21.60;54.08
53719;BME280;39616;48.872;9.390;2023-05-09T09:01:43;98243.75;;;21.88;52.73
53719;BME280;39616;48.872;9.390;2023-05-09T09:04:13;98238.63;;;21.60;52.61
53719;BME280;39616;48.872;9.390;2023-05-09T09:06:44;98243.38;;;21.90;52.11
53719;BME280;39616;48.872;9.390;2023-05-09T09:09:16;98242.97;;;22.14;51.58
53719;BME280;39616;48.872;9.390;2023-05-09T09:11:47;98246.56;;;21.92;50.27
53719;BME280;39616;48.872;9.390;2023-05-09T09:14:22;98254.09;;;22.22;50.16
53719;BME280;39616;48.872;9.390;2023-05-09T09:16:56;98243.50;;;22.61;48.89
53719;BME280;39616;48.872;9.390;2023-05-09T09:19:29;98240.75;;;22.61;48.72
53719;BME280;39616;48.872;9.390;2023-05-09T09:22:02;98233.56;;;22.56;48.81
53719;BME280;39616;48.872;9.390;2023-05-09T09:24:34;98222.28;;;22.35;48.33
53719;BME280;39616;48.872;9.390;2023-05-09T09:27:05;98225.31;;;22.23;49.69
53719;BME280;39616;48.872;9.390;2023-05-09T09:29:35;98222.03;;;22.47;49.89
53719;BME280;39616;48.872;9.390;2023-05-09T09:32:07;98224.31;;;22.79;49.22
53719;BME280;39616;48.872;9.390;2023-05-09T09:34:37;98215.09;;;22.98;48.69
53719;BME280;39616;48.872;9.390;2023-05-09T09:37:08;98209.56;;;22.98;48.87
53719;BME280;39616;48.872;9.390;2023-05-09T09:39:52;98211.13;;;22.99;49.51
53719;BME280;39616;48.872;9.390;2023-05-09T09:42:22;98206.47;;;23.06;49.75
53719;BME280;39616;48.872;9.390;2023-05-09T09:45:01;98198.00;;;22.51;49.74
53719;BME280;39616;48.872;9.390;2023-05-09T09:47:32;98201.38;;;22.04;51.38
53719;BME280;39616;48.872;9.390;2023-05-09T09:50:19;98195.59;;;22.46;51.88
53719;BME280;39616;48.872;9.390;2023-05-09T09:52:53;98183.06;;;22.97;50.39
53719;BME280;39616;48.872;9.390;2023-05-09T09:55:25;98189.59;;;23.77;49.43
53719;BME280;39616;48.872;9.390;2023-05-09T09:57:55;98186.94;;;23.99;49.06
53719;BME280;39616;48.872;9.390;2023-05-09T10:00:27;98181.25;;;23.70;49.77
53719;BME280;39616;48.872;9.390;2023-05-09T10:02:58;98178.50;;;23.74;47.18
53719;BME280;39616;48.872;9.390;2023-05-09T10:05:29;98165.84;;;23.73;47.61
53719;BME280;39616;48.872;9.390;2023-05-09T10:08:02;98164.78;;;24.02;48.48
53719;BME280;39616;48.872;9.390;2023-05-09T10:10:34;98160.09;;;24.17;48.34
53719;BME280;39616;48.872;9.390;2023-05-09T10:13:09;98159.59;;;23.86;47.12
53719;BME280;39616;48.872;9.390;2023-05-09T10:15:42;98155.97;;;23.72;48.43
53719;BME280;39616;48.872;9.390;2023-05-09T10:18:15;98158.13;;;23.45;48.53
53719;BME280;39616;48.872;9.390;2023-05-09T10:20:48;98149.56;;;23.05;50.05
53719;BME280;39616;48.872;9.390;2023-05-09T10:23:20;98146.63;;;22.87;49.09
53719;BME280;39616;48.872;9.390;2023-05-09T10:26:16;98139.41;;;22.35;51.04
53719;BME280;39616;48.872;9.390;2023-05-09T10:28:47;98135.66;;;22.50;51.54
53719;BME280;39616;48.872;9.390;2023-05-09T10:31:24;98129.16;;;22.76;51.99
53719;BME280;39616;48.872;9.390;2023-05-09T10:34:00;98135.19;;;23.44;49.66
53719;BME280;39616;48.872;9.390;2023-05-09T10:36:32;98121.47;;;23.00;48.93
53719;BME280;39616;48.872;9.390;2023-05-09T10:39:02;98113.94;;;22.52;49.95
53719;BME280;39616;48.872;9.390;2023-05-09T10:41:34;98105.38;;;21.90;51.60
53719;BME280;39616;48.872;9.390;2023-05-09T10:44:06;98108.00;;;21.79;52.92
53719;BME280;39616;48.872;9.390;2023-05-09T10:46:36;98102.41;;;22.06;51.62
53719;BME280;39616;48.872;9.390;2023-05-09T10:49:07;98094.72;;;22.22;51.00
53719;BME280;39616;48.872;9.390;2023-05-09T10:51:37;98082.84;;;22.62;51.87
53719;BME280;39616;48.872;9.390;2023-05-09T10:54:25;98081.13;;;22.92;50.65
53719;BME280;39616;48.872;9.390;2023-05-09T10:56:57;98080.50;;;23.20;50.58
53719;BME280;39616;48.872;9.390;2023-05-09T10:59:41;98075.69;;;23.02;49.24
53719;BME280;39616;48.872;9.390;2023-05-09T11:02:13;98076.31;;;22.85;50.35
53719;BME280;39616;48.872;9.390;2023-05-09T11:04:45;98067.44;;;23.09;49.83
53719;BME280;39616;48.872;9.390;2023-05-09T11:07:26;98059.19;;;23.20;51.09
53719;BME280;39616;48.872;9.390;2023-05-09T11:10:07;98058.09;;;23.35;49.82
53719;BME280;39616;48.872;9.390;2023-05-09T11:12:55;98055.63;;;23.20;50.45
53719;BME280;39616;48.872;9.390;2023-05-09T11:15:26;98046.66;;;23.44;50.35
53719;BME280;39616;48.872;9.390;2023-05-09T11:18:07;98051.25;;;23.15;51.03
53719;BME280;39616;48.872;9.390;2023-05-09T11:20:43;98047.69;;;22.59;51.51
53719;BME280;39616;48.872;9.390;2023-05-09T11:23:21;98038.13;;;22.46;53.42
53719;BME280;39616;48.872;9.390;2023-05-09T11:26:03;98037.94;;;22.25;52.97
53719;BME280;39616;48.872;9.390;2023-05-09T11:28:35;98035.50;;;21.82;53.47
53719;BME280;39616;48.872;9.390;2023-05-09T11:31:13;98033.50;;;21.79;55.39
53719;BME280;39616;48.872;9.390;2023-05-09T11:33:45;98023.66;;;22.19;54.98
53719;BME280;39616;48.872;9.390;2023-05-09T11:36:26;98026.72;;;22.10;53.47
53719;BME280;39616;48.872;9.390;2023-05-09T11:39:07;98017.22;;;22.08;53.80
53719;BME280;39616;48.872;9.390;2023-05-09T11:41:47;98009.25;;;21.99;53.47
53719;BME280;39616;48.872;9.390;2023-05-09T11:44:19;98009.91;;;21.85;54.26
53719;BME280;39616;48.872;9.390;2023-05-09T11:46:50;98001.19;;;21.83;53.68
53719;BME280;39616;48.872;9.390;2023-05-09T11:49:20;97991.41;;;21.89;53.70
53719;BME280;39616;48.872;9.390;2023-05-09T11:51:51;97992.81;;;22.10;54.21
53719;BME280;39616;48.872;9.390;2023-05-09T11:54:22;97989.44;;;22.31;52.83
53719;BME280;39616;48.872;9.390;2023-05-09T11:56:52;97985.44;;;22.21;52.88
53719;BME280;39616;48.872;9.390;2023-05-09T11:59:23;97978.09;;;22.39;52.71
53719;BME280;39616;48.872;9.390;2023-05-09T12:01:53;97978.16;;;22.50;52.43
53719;BME280;39616;48.872;9.390;2023-05-09T12:04:24;97967.31;;;22.27;53.70
53719;BME280;39616;48.872;9.390;2023-05-09T12:06:57;97963.38;;;22.25;54.01
53719;BME280;39616;48.872;9.390;2023-05-09T12:09:31;97958.69;;;22.32;54.02
53719;BME280;39616;48.872;9.390;2023-05-09T12:12:08;97960.00;;;22.53;53.31
53719;BME280;39616;48.872;9.390;2023-05-09T12:14:40;97955.44;;;22.78;53.45
53719;BME280;39616;48.872;9.390;2023-05-09T12:17:10;97955.19;;;23.05;52.73
53719;BME280;39616;48.872;9.390;2023-05-09T12:19:41;97949.31;;;23.10;51.85
53719;BME280;39616;48.872;9.390;2023-05-09T12:22:13;97938.59;;;22.94;53.06
53719;BME280;39616;48.872;9.390;2023-05-09T12:24:43;97944.84;;;22.87;52.33
53719;BME280;39616;48.872;9.390;2023-05-09T12:27:14;97943.47;;;22.60;52.65
53719;BME280;39616;48.872;9.390;2023-05-09T12:29:45;97930.91;;;22.66;53.43
53719;BME280;39616;48.872;9.390;2023-05-09T12:32:17;97923.41;;;22.66;53.72
53719;BME280;39616;48.872;9.390;2023-05-09T12:34:47;97925.19;;;23.03;52.01
53719;BME280;39616;48.872;9.390;2023-05-09T12:37:19;97913.47;;;23.35;52.01
53719;BME280;39616;48.872;9.390;2023-05-09T12:42:31;97911.44;;;23.21;51.97
53719;BME280;39616;48.872;9.390;2023-05-09T12:45:02;97903.13;;;23.18;52.21
53719;BME280;39616;48.872;9.390;2023-05-09T12:47:33;97904.28;;;23.06;51.52
53719;BME280;39616;48.872;9.390;2023-05-09T12:50:05;97902.19;;;22.88;53.33
53719;BME280;39616;48.872;9.390;2023-05-09T12:52:43;97899.38;;;22.81;52.53
53719;BME280;39616;48.872;9.390;2023-05-09T12:55:17;97892.53;;;22.54;52.06
53719;BME280;39616;48.872;9.390;2023-05-09T12:57:59;97887.09;;;22.72;52.49
53719;BME280;39616;48.872;9.390;2023-05-09T13:00:43;97875.66;;;22.73;52.40
53719;BME280;39616;48.872;9.390;2023-05-09T13:03:40;97879.34;;;22.99;52.52
53719;BME280;39616;48.872;9.390;2023-05-09T13:06:12;97874.22;;;23.01;52.45
53719;BME280;39616;48.872;9.390;2023-05-09T13:08:42;97873.06;;;23.05;52.06
53719;BME280;39616;48.872;9.390;2023-05-09T13:11:12;97865.53;;;23.02;50.65
53719;BME280;39616;48.872;9.390;2023-05-09T13:13:43;97853.75;;;23.16;51.86
53719;BME280;39616;48.872;9.390;2023-05-09T13:16:13;97854.88;;;23.04;52.09
53719;BME280;39616;48.872;9.390;2023-05-09T13:18:44;97842.66;;;23.20;50.74
53719;BME280;39616;48.872;9.390;2023-05-09T13:21:14;97838.69;;;23.03;51.88
53719;BME280;39616;48.872;9.390;2023-05-09T13:23:47;97833.16;;;23.06;51.92
53719;BME280;39616;48.872;9.390;2023-05-09T13:26:19;97829.66;;;23.20;51.25
53719;BME280;39616;48.872;9.390;2023-05-09T13:28:50;97822.88;;;23.03;51.30
53719;BME280;39616;48.872;9.390;2023-05-09T13:31:20;97815.81;;;23.13;52.04